Предлагаем Вашему вниманию английскую версию страницы: AUTOTAF.ME UNKY - aviation weather forecast Kyzyl

AUTOTAF UNKY - авиапрогноз Кызыл

Сегодня рассвет 23:54 UTC, восход солнца 00:28 UTC,
местный полдень 05:26 UTC, заход солнца 10:23 UTC,
наступление темноты 10:58 UTC.

Краткий прогноз UNKY на 9 часов

AUTOTAF.ME UNKY 270800Z 2709/2718 VRB02MPS CAVOK

Детальный прогноз UNKY на 24 часа

AUTOTAF.ME UNKY 270800Z 2709/2809 VRB02MPS 9999 OVC219 TX02/2806Z TNM05/2800Z        
  BECMG 2804/2806 OVC164TCU

Подробный табличный прогноз

Время (UTC) miniAUTOTAF на 3 ч WX FZLVL
M AGL
ICE TURB Т
(°С)
Тd
(°С)
f(%) QNH
(гПа)
WIND/T
06 VRB02MPS 9999 OVC180 210 MOD SFC/FL50 0 -8 54 1022 ...
09 VRB02MPS 9999 OVC219 360 1 -6 59 1021 ...
12 VRB02MPS 9999 OVC165 SFC -2 -8 67 1022 ...
15 VRB02MPS 9999 BKN270 SFC -3 -8 68 1022 ...
18 VRB02MPS 9999 SCT270 SFC -3 -8 72 1021 ...
21 VRB02MPS 9999 SKC SFC -4 -8 75 1020 ...
28.10.2020
00 VRB02MPS 9999 FEW340 SFC -5 -8 78 1018 ...
03 VRB02MPS 9999 OVC218 30 -1 -7 65 1015 ...
06 VRB02MPS 9999 OVC164TCU 420 MOD FL190/FL200 2 -7 51 1012 ...
09 VRB02MPS 9999 OVC163TCU 1800 MOD FL190/FL200 MOD FL170/FL180 2 -5 61 1012 ...
12 VRB02MPS 9999 OVC117TCU 30 FBL FL120/FL190 MOD FL120/FL150 -1 -6 69 1014 ...
15 VRB02MPS 9999 BKN117TCU 120 FBL FL120/FL170 MOD FL120/FL150 -0 -7 64 1015 ...
18 VRB02MPS 9999 BKN078TCU SFC MOD FL120/FL170 -4 -7 78 1017 ...
21 VRB02MPS 9999 BKN060 SFC MOD FL90/FL100 -4 -7 82 1019 ...
29.10.2020
00 VRB02MPS 9999 BKN060 SFC MOD FL90/FL100 MOD FL150/FL160 -5 -7 83 1020 ...
03 VRB02MPS 9999 BKN043 210 MOD FL70/FL170 0 -7 59 1020 ...


Широта 51.66943°, долгота 94.40053°, высота 653 м абс.
Средняя высота рельефа местности 834 м абс.
Прогнозы обновляются четыре раза в сутки: в 02, 08, 14, 20 ч всемирного времени.


Выбрать прогноз по другой модели Кызыл
Онлайн-сводка гроз по Кызыл (для РФ и ближнего зарубежья)
Карта фактических гроз в окрестностях Кызыл
Динамические прогностические карты (ventusky.com)
Прогностическая карта высоты нижней границы облаков по Кызыл (windy.com)
Выбрать другой город

Прогноз предназначен для личного научно-познавательного использования частными лицами
и не предназначен для принятия важных решений и выполнения реальных полётов воздушных судов

При копировании или ином использовании любых материалов данного сайта ссылка на © meteocenter.asia обязательна.

1.01/1.5